sensor_id;sensor_type;location;lat;lon;timestamp;P1;durP1;ratioP1;P2;durP2;ratioP2
11197;SDS011;5655;48.744;9.162;2022-11-03T00:02:19;13.82;;;8.02;;
11197;SDS011;5655;48.744;9.162;2022-11-03T00:04:45;14.20;;;7.50;;
11197;SDS011;5655;48.744;9.162;2022-11-03T00:07:11;12.35;;;7.45;;
11197;SDS011;5655;48.744;9.162;2022-11-03T00:09:36;13.05;;;7.72;;
11197;SDS011;5655;48.744;9.162;2022-11-03T00:12:01;14.93;;;8.02;;
11197;SDS011;5655;48.744;9.162;2022-11-03T00:14:27;14.00;;;7.47;;
11197;SDS011;5655;48.744;9.162;2022-11-03T00:16:52;12.80;;;7.82;;
11197;SDS011;5655;48.744;9.162;2022-11-03T00:19:18;16.35;;;8.10;;
11197;SDS011;5655;48.744;9.162;2022-11-03T00:21:44;17.48;;;7.57;;
11197;SDS011;5655;48.744;9.162;2022-11-03T00:24:10;13.18;;;8.15;;
11197;SDS011;5655;48.744;9.162;2022-11-03T00:26:36;16.42;;;8.52;;
11197;SDS011;5655;48.744;9.162;2022-11-03T00:29:05;18.15;;;8.57;;
11197;SDS011;5655;48.744;9.162;2022-11-03T00:31:36;15.07;;;7.78;;
11197;SDS011;5655;48.744;9.162;2022-11-03T00:34:03;19.02;;;8.60;;
11197;SDS011;5655;48.744;9.162;2022-11-03T00:36:33;19.52;;;8.07;;
11197;SDS011;5655;48.744;9.162;2022-11-03T00:39:00;15.20;;;8.02;;
11197;SDS011;5655;48.744;9.162;2022-11-03T00:41:26;17.98;;;8.02;;
11197;SDS011;5655;48.744;9.162;2022-11-03T00:43:52;16.55;;;8.20;;
11197;SDS011;5655;48.744;9.162;2022-11-03T00:46:18;16.88;;;9.02;;
11197;SDS011;5655;48.744;9.162;2022-11-03T00:48:44;15.30;;;8.63;;
11197;SDS011;5655;48.744;9.162;2022-11-03T00:51:25;12.65;;;7.68;;
11197;SDS011;5655;48.744;9.162;2022-11-03T00:53:55;11.70;;;8.00;;
11197;SDS011;5655;48.744;9.162;2022-11-03T00:56:23;12.93;;;8.20;;
11197;SDS011;5655;48.744;9.162;2022-11-03T00:59:08;14.95;;;8.48;;
11197;SDS011;5655;48.744;9.162;2022-11-03T01:01:41;16.70;;;8.57;;
11197;SDS011;5655;48.744;9.162;2022-11-03T01:04:08;19.38;;;9.75;;
11197;SDS011;5655;48.744;9.162;2022-11-03T01:06:53;13.07;;;8.60;;
11197;SDS011;5655;48.744;9.162;2022-11-03T01:09:21;18.73;;;9.13;;
11197;SDS011;5655;48.744;9.162;2022-11-03T01:12:05;19.27;;;8.85;;
11197;SDS011;5655;48.744;9.162;2022-11-03T01:17:08;17.45;;;8.90;;
11197;SDS011;5655;48.744;9.162;2022-11-03T01:19:36;18.85;;;9.13;;
11197;SDS011;5655;48.744;9.162;2022-11-03T01:22:02;13.07;;;8.25;;
11197;SDS011;5655;48.744;9.162;2022-11-03T01:24:27;17.75;;;8.82;;
11197;SDS011;5655;48.744;9.162;2022-11-03T01:26:52;20.27;;;9.52;;
11197;SDS011;5655;48.744;9.162;2022-11-03T01:29:18;14.63;;;8.45;;
11197;SDS011;5655;48.744;9.162;2022-11-03T01:31:43;16.52;;;8.73;;
11197;SDS011;5655;48.744;9.162;2022-11-03T01:34:15;14.77;;;9.07;;
11197;SDS011;5655;48.744;9.162;2022-11-03T01:36:42;16.00;;;9.13;;
11197;SDS011;5655;48.744;9.162;2022-11-03T01:39:12;15.38;;;8.90;;
11197;SDS011;5655;48.744;9.162;2022-11-03T01:41:38;18.65;;;9.20;;
11197;SDS011;5655;48.744;9.162;2022-11-03T01:46:35;16.27;;;8.55;;
11197;SDS011;5655;48.744;9.162;2022-11-03T01:49:24;20.50;;;9.68;;
11197;SDS011;5655;48.744;9.162;2022-11-03T01:51:51;17.95;;;8.90;;
11197;SDS011;5655;48.744;9.162;2022-11-03T01:54:27;17.55;;;8.38;;
11197;SDS011;5655;48.744;9.162;2022-11-03T01:56:54;15.35;;;9.00;;
11197;SDS011;5655;48.744;9.162;2022-11-03T01:59:22;15.77;;;8.45;;
11197;SDS011;5655;48.744;9.162;2022-11-03T02:01:48;16.33;;;8.40;;
11197;SDS011;5655;48.744;9.162;2022-11-03T02:04:16;17.60;;;8.27;;
11197;SDS011;5655;48.744;9.162;2022-11-03T02:06:47;14.93;;;8.82;;
11197;SDS011;5655;48.744;9.162;2022-11-03T02:09:17;13.65;;;8.23;;
11197;SDS011;5655;48.744;9.162;2022-11-03T02:11:43;14.13;;;8.10;;
11197;SDS011;5655;48.744;9.162;2022-11-03T02:14:27;13.85;;;7.50;;
11197;SDS011;5655;48.744;9.162;2022-11-03T02:16:53;16.77;;;7.63;;
11197;SDS011;5655;48.744;9.162;2022-11-03T02:21:57;17.90;;;7.93;;
11197;SDS011;5655;48.744;9.162;2022-11-03T02:27:07;15.02;;;7.57;;
11197;SDS011;5655;48.744;9.162;2022-11-03T02:29:32;14.10;;;6.57;;
11197;SDS011;5655;48.744;9.162;2022-11-03T02:32:02;9.45;;;6.38;;
11197;SDS011;5655;48.744;9.162;2022-11-03T02:35:01;13.65;;;6.65;;
11197;SDS011;5655;48.744;9.162;2022-11-03T02:37:34;13.40;;;6.30;;
11197;SDS011;5655;48.744;9.162;2022-11-03T02:40:11;9.13;;;5.47;;
11197;SDS011;5655;48.744;9.162;2022-11-03T02:42:39;14.48;;;6.07;;
11197;SDS011;5655;48.744;9.162;2022-11-03T02:45:10;11.27;;;5.75;;
11197;SDS011;5655;48.744;9.162;2022-11-03T02:47:38;10.32;;;6.15;;
11197;SDS011;5655;48.744;9.162;2022-11-03T02:50:06;11.07;;;5.57;;
11197;SDS011;5655;48.744;9.162;2022-11-03T02:57:47;11.50;;;5.38;;
11197;SDS011;5655;48.744;9.162;2022-11-03T03:00:18;13.15;;;6.07;;
11197;SDS011;5655;48.744;9.162;2022-11-03T03:02:50;11.40;;;5.85;;
11197;SDS011;5655;48.744;9.162;2022-11-03T03:05:22;9.60;;;5.47;;
11197;SDS011;5655;48.744;9.162;2022-11-03T03:07:51;15.80;;;6.35;;
11197;SDS011;5655;48.744;9.162;2022-11-03T03:10:23;11.10;;;5.50;;
11197;SDS011;5655;48.744;9.162;2022-11-03T03:12:53;11.80;;;5.95;;
11197;SDS011;5655;48.744;9.162;2022-11-03T03:16:07;11.02;;;6.18;;
11197;SDS011;5655;48.744;9.162;2022-11-03T03:18:22;10.85;;;6.43;;
11197;SDS011;5655;48.744;9.162;2022-11-03T03:23:30;11.10;;;6.70;;
11197;SDS011;5655;48.744;9.162;2022-11-03T03:26:00;17.42;;;7.43;;
11197;SDS011;5655;48.744;9.162;2022-11-03T03:31:10;12.70;;;7.03;;
11197;SDS011;5655;48.744;9.162;2022-11-03T03:33:38;10.63;;;6.35;;
11197;SDS011;5655;48.744;9.162;2022-11-03T03:36:05;13.43;;;6.65;;
11197;SDS011;5655;48.744;9.162;2022-11-03T03:38:36;11.23;;;6.35;;
11197;SDS011;5655;48.744;9.162;2022-11-03T03:41:06;14.07;;;6.72;;
11197;SDS011;5655;48.744;9.162;2022-11-03T03:43:33;13.70;;;7.15;;
11197;SDS011;5655;48.744;9.162;2022-11-03T03:46:03;14.30;;;6.80;;
11197;SDS011;5655;48.744;9.162;2022-11-03T03:48:32;11.27;;;6.65;;
11197;SDS011;5655;48.744;9.162;2022-11-03T03:50:57;12.80;;;8.00;;
11197;SDS011;5655;48.744;9.162;2022-11-03T03:53:27;14.80;;;7.90;;
11197;SDS011;5655;48.744;9.162;2022-11-03T03:55:54;19.38;;;7.65;;
11197;SDS011;5655;48.744;9.162;2022-11-03T03:58:19;13.82;;;7.78;;
11197;SDS011;5655;48.744;9.162;2022-11-03T04:00:45;13.45;;;7.97;;
11197;SDS011;5655;48.744;9.162;2022-11-03T04:03:15;17.10;;;7.18;;
11197;SDS011;5655;48.744;9.162;2022-11-03T04:05:45;14.02;;;7.20;;
11197;SDS011;5655;48.744;9.162;2022-11-03T04:08:12;16.58;;;7.38;;
11197;SDS011;5655;48.744;9.162;2022-11-03T04:10:38;16.17;;;6.97;;
11197;SDS011;5655;48.744;9.162;2022-11-03T04:13:04;11.85;;;7.55;;
11197;SDS011;5655;48.744;9.162;2022-11-03T04:15:48;11.48;;;7.35;;
11197;SDS011;5655;48.744;9.162;2022-11-03T04:18:16;12.65;;;6.88;;
11197;SDS011;5655;48.744;9.162;2022-11-03T04:21:02;17.50;;;8.30;;
11197;SDS011;5655;48.744;9.162;2022-11-03T04:23:46;15.55;;;8.82;;
11197;SDS011;5655;48.744;9.162;2022-11-03T04:26:13;16.40;;;7.80;;
11197;SDS011;5655;48.744;9.162;2022-11-03T04:28:40;13.00;;;7.50;;
11197;SDS011;5655;48.744;9.162;2022-11-03T04:31:13;15.15;;;8.50;;
11197;SDS011;5655;48.744;9.162;2022-11-03T04:33:40;14.05;;;8.55;;
11197;SDS011;5655;48.744;9.162;2022-11-03T04:36:11;23.40;;;9.05;;
11197;SDS011;5655;48.744;9.162;2022-11-03T04:38:37;12.98;;;8.82;;
11197;SDS011;5655;48.744;9.162;2022-11-03T04:41:11;18.05;;;9.10;;
11197;SDS011;5655;48.744;9.162;2022-11-03T04:43:39;15.10;;;9.40;;
11197;SDS011;5655;48.744;9.162;2022-11-03T04:46:04;18.77;;;10.00;;
11197;SDS011;5655;48.744;9.162;2022-11-03T04:48:35;26.50;;;10.35;;
11197;SDS011;5655;48.744;9.162;2022-11-03T04:51:01;21.10;;;10.27;;
11197;SDS011;5655;48.744;9.162;2022-11-03T04:53:34;16.85;;;10.82;;
11197;SDS011;5655;48.744;9.162;2022-11-03T04:55:59;18.90;;;10.85;;
11197;SDS011;5655;48.744;9.162;2022-11-03T04:58:25;16.85;;;9.82;;
11197;SDS011;5655;48.744;9.162;2022-11-03T05:00:55;19.38;;;11.57;;
11197;SDS011;5655;48.744;9.162;2022-11-03T05:03:23;16.55;;;10.32;;
11197;SDS011;5655;48.744;9.162;2022-11-03T05:05:51;19.27;;;11.73;;
11197;SDS011;5655;48.744;9.162;2022-11-03T05:08:16;20.30;;;11.73;;
11197;SDS011;5655;48.744;9.162;2022-11-03T05:10:43;22.80;;;11.65;;
11197;SDS011;5655;48.744;9.162;2022-11-03T05:13:14;19.30;;;11.82;;
11197;SDS011;5655;48.744;9.162;2022-11-03T05:15:43;19.63;;;11.80;;
11197;SDS011;5655;48.744;9.162;2022-11-03T05:18:17;18.40;;;11.75;;
11197;SDS011;5655;48.744;9.162;2022-11-03T05:20:50;19.88;;;12.38;;
11197;SDS011;5655;48.744;9.162;2022-11-03T05:23:20;25.38;;;14.82;;
11197;SDS011;5655;48.744;9.162;2022-11-03T05:25:48;23.90;;;13.25;;
11197;SDS011;5655;48.744;9.162;2022-11-03T05:28:36;18.33;;;12.23;;
11197;SDS011;5655;48.744;9.162;2022-11-03T05:33:50;15.38;;;10.38;;
11197;SDS011;5655;48.744;9.162;2022-11-03T05:36:21;21.92;;;10.77;;
11197;SDS011;5655;48.744;9.162;2022-11-03T05:38:48;17.77;;;11.27;;
11197;SDS011;5655;48.744;9.162;2022-11-03T05:41:18;14.93;;;10.13;;
11197;SDS011;5655;48.744;9.162;2022-11-03T05:43:58;23.88;;;10.40;;
11197;SDS011;5655;48.744;9.162;2022-11-03T05:46:26;21.02;;;10.25;;
11197;SDS011;5655;48.744;9.162;2022-11-03T05:48:54;14.68;;;10.20;;
11197;SDS011;5655;48.744;9.162;2022-11-03T05:51:21;18.88;;;9.48;;
11197;SDS011;5655;48.744;9.162;2022-11-03T05:53:50;13.63;;;9.70;;
11197;SDS011;5655;48.744;9.162;2022-11-03T05:56:21;14.05;;;9.32;;
11197;SDS011;5655;48.744;9.162;2022-11-03T05:58:48;16.05;;;9.77;;
11197;SDS011;5655;48.744;9.162;2022-11-03T06:01:18;16.25;;;9.70;;
11197;SDS011;5655;48.744;9.162;2022-11-03T06:03:47;16.58;;;8.77;;
11197;SDS011;5655;48.744;9.162;2022-11-03T06:06:27;16.90;;;9.80;;
11197;SDS011;5655;48.744;9.162;2022-11-03T06:08:57;12.60;;;8.23;;
11197;SDS011;5655;48.744;9.162;2022-11-03T06:11:35;14.48;;;8.25;;
11197;SDS011;5655;48.744;9.162;2022-11-03T06:14:01;17.67;;;8.52;;
11197;SDS011;5655;48.744;9.162;2022-11-03T06:17:23;18.08;;;8.02;;
11197;SDS011;5655;48.744;9.162;2022-11-03T06:21:54;19.35;;;7.10;;
11197;SDS011;5655;48.744;9.162;2022-11-03T06:24:25;14.25;;;7.18;;
11197;SDS011;5655;48.744;9.162;2022-11-03T06:26:55;13.05;;;7.32;;
11197;SDS011;5655;48.744;9.162;2022-11-03T06:29:21;17.70;;;8.98;;
11197;SDS011;5655;48.744;9.162;2022-11-03T06:31:47;14.15;;;8.60;;
11197;SDS011;5655;48.744;9.162;2022-11-03T06:34:22;17.95;;;8.15;;
11197;SDS011;5655;48.744;9.162;2022-11-03T06:37:16;16.13;;;9.00;;
11197;SDS011;5655;48.744;9.162;2022-11-03T06:40:42;16.50;;;8.50;;
11197;SDS011;5655;48.744;9.162;2022-11-03T06:42:56;15.70;;;8.40;;
11197;SDS011;5655;48.744;9.162;2022-11-03T06:45:23;19.58;;;8.55;;
11197;SDS011;5655;48.744;9.162;2022-11-03T06:47:49;14.25;;;8.60;;
11197;SDS011;5655;48.744;9.162;2022-11-03T06:50:34;17.35;;;8.05;;
11197;SDS011;5655;48.744;9.162;2022-11-03T06:53:01;15.25;;;8.65;;
11197;SDS011;5655;48.744;9.162;2022-11-03T06:55:28;18.85;;;8.68;;
11197;SDS011;5655;48.744;9.162;2022-11-03T06:57:59;16.83;;;8.80;;
11197;SDS011;5655;48.744;9.162;2022-11-03T07:00:29;12.23;;;7.35;;
11197;SDS011;5655;48.744;9.162;2022-11-03T07:03:00;15.00;;;7.93;;
11197;SDS011;5655;48.744;9.162;2022-11-03T07:05:27;15.38;;;7.97;;
11197;SDS011;5655;48.744;9.162;2022-11-03T07:07:54;15.38;;;8.32;;
11197;SDS011;5655;48.744;9.162;2022-11-03T07:10:30;16.25;;;8.60;;
11197;SDS011;5655;48.744;9.162;2022-11-03T07:12:58;13.88;;;8.13;;
11197;SDS011;5655;48.744;9.162;2022-11-03T07:15:31;16.67;;;7.72;;
11197;SDS011;5655;48.744;9.162;2022-11-03T07:17:59;16.00;;;8.80;;
11197;SDS011;5655;48.744;9.162;2022-11-03T07:20:26;17.25;;;8.98;;
11197;SDS011;5655;48.744;9.162;2022-11-03T07:22:52;10.68;;;7.95;;
11197;SDS011;5655;48.744;9.162;2022-11-03T07:25:19;13.13;;;8.20;;
11197;SDS011;5655;48.744;9.162;2022-11-03T07:27:49;16.38;;;8.93;;
11197;SDS011;5655;48.744;9.162;2022-11-03T07:32:51;12.98;;;8.10;;
11197;SDS011;5655;48.744;9.162;2022-11-03T07:35:25;13.45;;;7.40;;
11197;SDS011;5655;48.744;9.162;2022-11-03T07:37:54;11.80;;;7.80;;
11197;SDS011;5655;48.744;9.162;2022-11-03T07:40:22;13.40;;;6.90;;
11197;SDS011;5655;48.744;9.162;2022-11-03T07:42:49;11.23;;;6.97;;
11197;SDS011;5655;48.744;9.162;2022-11-03T07:45:32;14.52;;;6.78;;
11197;SDS011;5655;48.744;9.162;2022-11-03T07:47:59;11.48;;;5.95;;
11197;SDS011;5655;48.744;9.162;2022-11-03T07:50:26;12.57;;;7.18;;
11197;SDS011;5655;48.744;9.162;2022-11-03T07:52:52;15.48;;;7.00;;
11197;SDS011;5655;48.744;9.162;2022-11-03T07:55:17;14.50;;;7.47;;
11197;SDS011;5655;48.744;9.162;2022-11-03T07:57:42;12.43;;;6.97;;
11197;SDS011;5655;48.744;9.162;2022-11-03T08:00:13;14.85;;;7.25;;
11197;SDS011;5655;48.744;9.162;2022-11-03T08:02:49;13.95;;;7.90;;
11197;SDS011;5655;48.744;9.162;2022-11-03T08:05:19;15.02;;;7.88;;
11197;SDS011;5655;48.744;9.162;2022-11-03T08:07:46;14.32;;;7.47;;
11197;SDS011;5655;48.744;9.162;2022-11-03T08:10:11;17.88;;;8.07;;
11197;SDS011;5655;48.744;9.162;2022-11-03T08:12:37;12.35;;;7.43;;
11197;SDS011;5655;48.744;9.162;2022-11-03T08:15:03;12.82;;;7.05;;
11197;SDS011;5655;48.744;9.162;2022-11-03T08:17:29;10.90;;;6.82;;
11197;SDS011;5655;48.744;9.162;2022-11-03T08:19:54;11.20;;;6.18;;
11197;SDS011;5655;48.744;9.162;2022-11-03T08:22:19;9.63;;;5.72;;
11197;SDS011;5655;48.744;9.162;2022-11-03T08:24:46;9.57;;;5.22;;
11197;SDS011;5655;48.744;9.162;2022-11-03T08:27:11;10.75;;;5.75;;
11197;SDS011;5655;48.744;9.162;2022-11-03T08:29:37;12.43;;;5.00;;
11197;SDS011;5655;48.744;9.162;2022-11-03T08:32:02;18.65;;;5.45;;
11197;SDS011;5655;48.744;9.162;2022-11-03T08:34:27;6.43;;;4.28;;
11197;SDS011;5655;48.744;9.162;2022-11-03T08:36:53;10.00;;;4.80;;
11197;SDS011;5655;48.744;9.162;2022-11-03T08:39:18;9.80;;;4.82;;
11197;SDS011;5655;48.744;9.162;2022-11-03T08:41:43;10.45;;;5.13;;
11197;SDS011;5655;48.744;9.162;2022-11-03T08:44:08;9.50;;;4.95;;
11197;SDS011;5655;48.744;9.162;2022-11-03T08:46:34;12.20;;;4.90;;
11197;SDS011;5655;48.744;9.162;2022-11-03T08:48:59;14.30;;;4.57;;
11197;SDS011;5655;48.744;9.162;2022-11-03T08:51:25;9.15;;;4.07;;
11197;SDS011;5655;48.744;9.162;2022-11-03T08:53:50;10.20;;;4.07;;
11197;SDS011;5655;48.744;9.162;2022-11-03T08:56:18;7.18;;;4.40;;
11197;SDS011;5655;48.744;9.162;2022-11-03T08:58:44;8.13;;;3.83;;
11197;SDS011;5655;48.744;9.162;2022-11-03T09:01:10;9.80;;;4.10;;
11197;SDS011;5655;48.744;9.162;2022-11-03T09:03:35;6.18;;;3.22;;
11197;SDS011;5655;48.744;9.162;2022-11-03T09:06:00;8.57;;;3.78;;
11197;SDS011;5655;48.744;9.162;2022-11-03T09:08:26;8.55;;;3.25;;
11197;SDS011;5655;48.744;9.162;2022-11-03T09:10:51;5.32;;;2.92;;
11197;SDS011;5655;48.744;9.162;2022-11-03T09:13:16;9.32;;;3.60;;
11197;SDS011;5655;48.744;9.162;2022-11-03T09:15:42;9.60;;;2.67;;
11197;SDS011;5655;48.744;9.162;2022-11-03T09:18:08;9.70;;;3.10;;
11197;SDS011;5655;48.744;9.162;2022-11-03T09:20:33;4.70;;;2.42;;
11197;SDS011;5655;48.744;9.162;2022-11-03T09:22:59;5.40;;;2.50;;
11197;SDS011;5655;48.744;9.162;2022-11-03T09:25:24;6.10;;;2.80;;
11197;SDS011;5655;48.744;9.162;2022-11-03T09:27:49;6.25;;;3.03;;
11197;SDS011;5655;48.744;9.162;2022-11-03T09:30:15;4.85;;;2.78;;
11197;SDS011;5655;48.744;9.162;2022-11-03T09:32:41;7.30;;;2.90;;
11197;SDS011;5655;48.744;9.162;2022-11-03T09:35:07;4.38;;;2.75;;
11197;SDS011;5655;48.744;9.162;2022-11-03T09:37:36;4.72;;;2.58;;
11197;SDS011;5655;48.744;9.162;2022-11-03T09:40:02;5.97;;;2.53;;
11197;SDS011;5655;48.744;9.162;2022-11-03T09:42:28;6.88;;;2.90;;
11197;SDS011;5655;48.744;9.162;2022-11-03T09:44:55;11.75;;;2.85;;
11197;SDS011;5655;48.744;9.162;2022-11-03T09:47:25;6.85;;;3.38;;
11197;SDS011;5655;48.744;9.162;2022-11-03T09:49:53;8.77;;;3.22;;
11197;SDS011;5655;48.744;9.162;2022-11-03T09:52:20;6.20;;;3.13;;
11197;SDS011;5655;48.744;9.162;2022-11-03T09:54:47;5.90;;;2.88;;
11197;SDS011;5655;48.744;9.162;2022-11-03T09:57:14;9.80;;;3.10;;
11197;SDS011;5655;48.744;9.162;2022-11-03T09:59:44;6.03;;;2.67;;
11197;SDS011;5655;48.744;9.162;2022-11-03T10:02:28;7.75;;;2.72;;
11197;SDS011;5655;48.744;9.162;2022-11-03T10:04:56;8.68;;;3.20;;
11197;SDS011;5655;48.744;9.162;2022-11-03T10:07:24;5.30;;;2.40;;
11197;SDS011;5655;48.744;9.162;2022-11-03T10:09:51;8.35;;;2.75;;
11197;SDS011;5655;48.744;9.162;2022-11-03T10:12:20;6.68;;;2.60;;
11197;SDS011;5655;48.744;9.162;2022-11-03T10:14:47;9.30;;;3.03;;
11197;SDS011;5655;48.744;9.162;2022-11-03T10:17:15;4.28;;;2.35;;
11197;SDS011;5655;48.744;9.162;2022-11-03T10:19:43;8.80;;;3.03;;
11197;SDS011;5655;48.744;9.162;2022-11-03T10:22:12;9.30;;;2.50;;
11197;SDS011;5655;48.744;9.162;2022-11-03T10:24:37;5.13;;;2.50;;
11197;SDS011;5655;48.744;9.162;2022-11-03T10:27:03;5.93;;;2.53;;
11197;SDS011;5655;48.744;9.162;2022-11-03T10:29:43;5.97;;;2.63;;
11197;SDS011;5655;48.744;9.162;2022-11-03T10:32:10;8.85;;;4.18;;
11197;SDS011;5655;48.744;9.162;2022-11-03T10:34:53;7.35;;;3.03;;
11197;SDS011;5655;48.744;9.162;2022-11-03T10:37:22;6.40;;;2.47;;
11197;SDS011;5655;48.744;9.162;2022-11-03T10:39:54;5.32;;;2.83;;
11197;SDS011;5655;48.744;9.162;2022-11-03T10:42:25;6.07;;;2.80;;
11197;SDS011;5655;48.744;9.162;2022-11-03T10:45:07;6.90;;;2.75;;
11197;SDS011;5655;48.744;9.162;2022-11-03T10:47:43;5.50;;;2.60;;
11197;SDS011;5655;48.744;9.162;2022-11-03T10:50:23;5.95;;;2.88;;
11197;SDS011;5655;48.744;9.162;2022-11-03T10:52:50;5.25;;;2.88;;
11197;SDS011;5655;48.744;9.162;2022-11-03T10:55:16;6.80;;;2.85;;
11197;SDS011;5655;48.744;9.162;2022-11-03T10:57:43;3.05;;;2.38;;
11197;SDS011;5655;48.744;9.162;2022-11-03T11:00:12;9.50;;;2.10;;
11197;SDS011;5655;48.744;9.162;2022-11-03T11:02:39;5.63;;;2.13;;
11197;SDS011;5655;48.744;9.162;2022-11-03T11:05:13;4.72;;;2.17;;
11197;SDS011;5655;48.744;9.162;2022-11-03T11:07:42;9.50;;;2.40;;
11197;SDS011;5655;48.744;9.162;2022-11-03T11:10:24;4.22;;;2.42;;
11197;SDS011;5655;48.744;9.162;2022-11-03T11:13:04;4.22;;;2.28;;
11197;SDS011;5655;48.744;9.162;2022-11-03T11:18:08;3.30;;;2.15;;
11197;SDS011;5655;48.744;9.162;2022-11-03T11:20:38;7.15;;;2.40;;
11197;SDS011;5655;48.744;9.162;2022-11-03T11:28:41;5.03;;;2.38;;
11197;SDS011;5655;48.744;9.162;2022-11-03T11:31:27;5.18;;;2.40;;
11197;SDS011;5655;48.744;9.162;2022-11-03T11:36:42;4.78;;;2.38;;
11197;SDS011;5655;48.744;9.162;2022-11-03T11:49:47;4.60;;;2.20;;
11197;SDS011;5655;48.744;9.162;2022-11-03T11:52:13;5.05;;;2.40;;
11197;SDS011;5655;48.744;9.162;2022-11-03T11:54:40;8.75;;;2.45;;
11197;SDS011;5655;48.744;9.162;2022-11-03T11:57:16;4.00;;;2.25;;
11197;SDS011;5655;48.744;9.162;2022-11-03T11:59:47;4.60;;;2.00;;
11197;SDS011;5655;48.744;9.162;2022-11-03T12:02:21;5.78;;;2.90;;
11197;SDS011;5655;48.744;9.162;2022-11-03T12:04:52;4.85;;;2.35;;
11197;SDS011;5655;48.744;9.162;2022-11-03T12:07:34;6.55;;;2.78;;
11197;SDS011;5655;48.744;9.162;2022-11-03T12:10:20;6.18;;;2.70;;
11197;SDS011;5655;48.744;9.162;2022-11-03T12:12:47;6.10;;;2.20;;
11197;SDS011;5655;48.744;9.162;2022-11-03T12:21:00;6.28;;;2.90;;
11197;SDS011;5655;48.744;9.162;2022-11-03T12:29:03;4.72;;;2.70;;
11197;SDS011;5655;48.744;9.162;2022-11-03T12:31:29;6.13;;;2.88;;
11197;SDS011;5655;48.744;9.162;2022-11-03T12:33:54;5.28;;;2.92;;
11197;SDS011;5655;48.744;9.162;2022-11-03T12:36:19;12.70;;;3.58;;
11197;SDS011;5655;48.744;9.162;2022-11-03T12:38:45;8.45;;;3.70;;
11197;SDS011;5655;48.744;9.162;2022-11-03T12:41:10;7.30;;;3.50;;
11197;SDS011;5655;48.744;9.162;2022-11-03T12:43:51;11.07;;;4.05;;
11197;SDS011;5655;48.744;9.162;2022-11-03T12:46:18;6.40;;;3.53;;
11197;SDS011;5655;48.744;9.162;2022-11-03T12:48:45;7.03;;;4.05;;
11197;SDS011;5655;48.744;9.162;2022-11-03T12:51:15;6.90;;;4.13;;
11197;SDS011;5655;48.744;9.162;2022-11-03T12:53:42;7.35;;;4.15;;
11197;SDS011;5655;48.744;9.162;2022-11-03T12:56:09;8.10;;;3.95;;
11197;SDS011;5655;48.744;9.162;2022-11-03T12:58:35;9.18;;;4.40;;
11197;SDS011;5655;48.744;9.162;2022-11-03T13:01:00;9.52;;;4.38;;
11197;SDS011;5655;48.744;9.162;2022-11-03T13:03:26;6.22;;;3.90;;
11197;SDS011;5655;48.744;9.162;2022-11-03T13:05:52;6.60;;;3.60;;
11197;SDS011;5655;48.744;9.162;2022-11-03T13:08:17;4.95;;;3.58;;
11197;SDS011;5655;48.744;9.162;2022-11-03T13:10:42;5.93;;;3.97;;
11197;SDS011;5655;48.744;9.162;2022-11-03T13:13:08;5.53;;;3.85;;
11197;SDS011;5655;48.744;9.162;2022-11-03T13:15:33;8.45;;;3.85;;
11197;SDS011;5655;48.744;9.162;2022-11-03T13:17:59;10.98;;;4.40;;
11197;SDS011;5655;48.744;9.162;2022-11-03T13:20:24;8.48;;;3.40;;
11197;SDS011;5655;48.744;9.162;2022-11-03T13:22:49;8.68;;;3.97;;
11197;SDS011;5655;48.744;9.162;2022-11-03T13:25:15;7.97;;;3.83;;
11197;SDS011;5655;48.744;9.162;2022-11-03T13:27:41;10.43;;;4.38;;
11197;SDS011;5655;48.744;9.162;2022-11-03T13:30:06;12.55;;;3.88;;
11197;SDS011;5655;48.744;9.162;2022-11-03T13:32:33;4.45;;;3.67;;
11197;SDS011;5655;48.744;9.162;2022-11-03T13:34:58;11.25;;;4.03;;
11197;SDS011;5655;48.744;9.162;2022-11-03T13:37:24;9.00;;;5.45;;
11197;SDS011;5655;48.744;9.162;2022-11-03T13:39:49;12.00;;;5.43;;
11197;SDS011;5655;48.744;9.162;2022-11-03T13:42:14;10.55;;;5.47;;
11197;SDS011;5655;48.744;9.162;2022-11-03T13:44:40;10.60;;;5.85;;
11197;SDS011;5655;48.744;9.162;2022-11-03T13:47:05;8.93;;;5.95;;
11197;SDS011;5655;48.744;9.162;2022-11-03T13:49:31;9.18;;;5.75;;
11197;SDS011;5655;48.744;9.162;2022-11-03T13:51:56;10.32;;;5.82;;
11197;SDS011;5655;48.744;9.162;2022-11-03T13:54:21;11.65;;;6.45;;
11197;SDS011;5655;48.744;9.162;2022-11-03T13:56:47;10.05;;;7.00;;
11197;SDS011;5655;48.744;9.162;2022-11-03T13:59:12;12.18;;;6.45;;
11197;SDS011;5655;48.744;9.162;2022-11-03T14:01:37;10.30;;;6.28;;
11197;SDS011;5655;48.744;9.162;2022-11-03T14:04:03;9.32;;;5.65;;
11197;SDS011;5655;48.744;9.162;2022-11-03T14:06:28;10.60;;;5.40;;
11197;SDS011;5655;48.744;9.162;2022-11-03T14:08:53;7.30;;;5.75;;
11197;SDS011;5655;48.744;9.162;2022-11-03T14:11:19;12.82;;;5.35;;
11197;SDS011;5655;48.744;9.162;2022-11-03T14:14:02;8.88;;;5.30;;
11197;SDS011;5655;48.744;9.162;2022-11-03T14:16:28;17.70;;;6.35;;
11197;SDS011;5655;48.744;9.162;2022-11-03T14:18:53;10.95;;;6.07;;
11197;SDS011;5655;48.744;9.162;2022-11-03T14:21:19;8.77;;;5.32;;
11197;SDS011;5655;48.744;9.162;2022-11-03T14:23:44;8.82;;;5.15;;
11197;SDS011;5655;48.744;9.162;2022-11-03T14:26:09;8.88;;;5.38;;
11197;SDS011;5655;48.744;9.162;2022-11-03T14:28:34;9.35;;;6.50;;
11197;SDS011;5655;48.744;9.162;2022-11-03T14:31:00;7.53;;;5.85;;
11197;SDS011;5655;48.744;9.162;2022-11-03T14:33:27;9.00;;;5.40;;
11197;SDS011;5655;48.744;9.162;2022-11-03T14:35:53;11.00;;;5.80;;
11197;SDS011;5655;48.744;9.162;2022-11-03T14:38:18;8.55;;;5.47;;
11197;SDS011;5655;48.744;9.162;2022-11-03T14:40:44;8.98;;;5.57;;
11197;SDS011;5655;48.744;9.162;2022-11-03T14:43:28;8.43;;;5.15;;
11197;SDS011;5655;48.744;9.162;2022-11-03T14:45:53;7.32;;;5.07;;
11197;SDS011;5655;48.744;9.162;2022-11-03T14:48:18;7.35;;;4.80;;
11197;SDS011;5655;48.744;9.162;2022-11-03T14:50:44;7.80;;;5.00;;
11197;SDS011;5655;48.744;9.162;2022-11-03T14:53:09;10.20;;;5.28;;
11197;SDS011;5655;48.744;9.162;2022-11-03T14:55:34;8.68;;;5.03;;
11197;SDS011;5655;48.744;9.162;2022-11-03T14:58:00;6.80;;;4.95;;
11197;SDS011;5655;48.744;9.162;2022-11-03T15:00:25;11.90;;;5.18;;
11197;SDS011;5655;48.744;9.162;2022-11-03T15:02:50;8.05;;;5.28;;
11197;SDS011;5655;48.744;9.162;2022-11-03T15:05:16;12.23;;;5.55;;
11197;SDS011;5655;48.744;9.162;2022-11-03T15:08:00;8.35;;;5.53;;
11197;SDS011;5655;48.744;9.162;2022-11-03T15:10:25;10.02;;;5.95;;
11197;SDS011;5655;48.744;9.162;2022-11-03T15:12:50;9.82;;;5.45;;
11197;SDS011;5655;48.744;9.162;2022-11-03T15:15:16;8.85;;;5.28;;
11197;SDS011;5655;48.744;9.162;2022-11-03T15:17:41;11.25;;;5.85;;
11197;SDS011;5655;48.744;9.162;2022-11-03T15:20:06;9.57;;;6.10;;
11197;SDS011;5655;48.744;9.162;2022-11-03T15:22:32;11.80;;;6.60;;
11197;SDS011;5655;48.744;9.162;2022-11-03T15:24:58;11.32;;;7.10;;
11197;SDS011;5655;48.744;9.162;2022-11-03T15:27:23;13.30;;;6.88;;
11197;SDS011;5655;48.744;9.162;2022-11-03T15:29:48;11.68;;;7.05;;
11197;SDS011;5655;48.744;9.162;2022-11-03T15:32:14;9.88;;;5.60;;
11197;SDS011;5655;48.744;9.162;2022-11-03T15:34:39;8.82;;;5.03;;
11197;SDS011;5655;48.744;9.162;2022-11-03T15:37:05;8.80;;;5.50;;
11197;SDS011;5655;48.744;9.162;2022-11-03T15:39:30;10.13;;;4.88;;
11197;SDS011;5655;48.744;9.162;2022-11-03T15:41:55;7.95;;;5.13;;
11197;SDS011;5655;48.744;9.162;2022-11-03T15:44:21;5.93;;;4.80;;
11197;SDS011;5655;48.744;9.162;2022-11-03T15:46:46;8.68;;;5.43;;
11197;SDS011;5655;48.744;9.162;2022-11-03T15:49:12;11.68;;;5.43;;
11197;SDS011;5655;48.744;9.162;2022-11-03T15:51:37;9.35;;;5.70;;
11197;SDS011;5655;48.744;9.162;2022-11-03T15:54:03;9.00;;;5.95;;
11197;SDS011;5655;48.744;9.162;2022-11-03T15:56:28;7.97;;;5.60;;
11197;SDS011;5655;48.744;9.162;2022-11-03T15:58:54;9.45;;;5.53;;
11197;SDS011;5655;48.744;9.162;2022-11-03T16:01:19;8.30;;;5.97;;
11197;SDS011;5655;48.744;9.162;2022-11-03T16:03:45;10.27;;;6.07;;
11197;SDS011;5655;48.744;9.162;2022-11-03T16:06:10;8.20;;;5.47;;